Pagina principală
METAR-TAF:

METAR-TAF

Aeroporturi :

Suva, Fiji

Latitudine: 18-03S, longitudine: 178-34E, elevație: 5 m

Observații meteo curente

Raportul a fost făcut în urmă cu 1 oră și 13 de minute, la 04:00 UTC
Vânt 14 kt de la Vest/Sud-vest, variabil între Sud/Sud-vest și Vest
Temperatură 26°C
Umiditate 54%
Presiune 1006 hPa
Vizibilitate de 10 km sau mai mult
Nori puțini la o înălțime de 2000 picior

METAR: NFNA 010400Z 24014KT 210V270 9999 FEW020 26/16 Q1006

Ora: 17:13 (05:13 UTC)

Prognoză

Raportul a fost făcut în urmă cu 6 ore și 10 de minute, la 23:03 UTC
Prognoză valabilă de la 01 ora 00 UTC la 01 ora 24 UTC
Vânt 13 kt de la Vest
Vizibilitate de 10 km sau mai mult
Nori împrăștiați la o înălțime de 2000 picior
Nori împrăștiați la o înălțime de 4800 picior

TAF: NFNA 312303Z 0100/0124 26013KT 9999 SCT020 SCT048

Observații și prognoze meteo pentru peste 4.000 de aeroporturi (rapoarte METAR și TAF).

Stațiile disponibile sunt reprezentate pe hartă prin puncte galbene și roșii.

Țineți indicatorul mouse-ului pe punctul dorit pentru a vedea denumirea stației.

Apoi, faceți clic pentru a vedea observațiile și prognozele meteorologice.

Pentru a schimba harta: Pentru mărire, faceți clic pe butoanele verzi cu cruce neagră; pentru micșorare, pe butonul verde cu o liniuță; pentru hărți învecinate, pe săgețile verzi.


METAR-TAF: